createdAt,value
2023-04-08T00:01:57.537Z,11.20
2023-04-08T00:04:43.390Z,11.20
2023-04-08T00:07:29.751Z,11.10
2023-04-08T00:10:18.404Z,11.20
2023-04-08T00:13:03.651Z,11.10
2023-04-08T00:15:49.255Z,11.10
2023-04-08T00:18:34.729Z,11.10
2023-04-08T00:21:22.098Z,11.10
2023-04-08T00:24:07.336Z,11.10
2023-04-08T00:26:52.912Z,11.10
2023-04-08T00:29:38.433Z,11.00
2023-04-08T00:32:24.031Z,11.10
2023-04-08T00:35:12.921Z,11.00
2023-04-08T00:37:58.575Z,11.00
2023-04-08T00:40:43.883Z,11.00
2023-04-08T00:43:29.413Z,11.00
2023-04-08T00:46:14.912Z,11.00
2023-04-08T00:49:02.211Z,11.00
2023-04-08T00:51:47.748Z,11.00
2023-04-08T00:54:33.479Z,11.00
2023-04-08T00:57:18.910Z,11.00
2023-04-08T01:00:06.540Z,11.00
2023-04-08T01:03:04.562Z,11.00
2023-04-08T01:06:06.652Z,11.00
2023-04-08T01:08:55.308Z,11.00
2023-04-08T01:11:46.377Z,11.00
2023-04-08T01:14:34.945Z,11.00
2023-04-08T01:17:22.301Z,10.90
2023-04-08T01:20:09.342Z,10.90
2023-04-08T01:23:01.288Z,10.90
2023-04-08T01:25:56.445Z,10.90
2023-04-08T01:28:43.771Z,10.90
2023-04-08T01:31:30.811Z,10.90
2023-04-08T01:34:21.742Z,10.80
2023-04-08T01:37:08.136Z,10.80
2023-04-08T01:39:55.151Z,10.70
2023-04-08T01:42:42.069Z,10.70
2023-04-08T01:45:31.076Z,10.70
2023-04-08T01:48:20.160Z,10.70
2023-04-08T01:51:06.360Z,10.70
2023-04-08T01:53:53.605Z,10.70
2023-04-08T01:56:42.602Z,10.70
2023-04-08T01:59:34.611Z,10.80
2023-04-08T02:02:26.743Z,10.80
2023-04-08T02:05:12.362Z,10.70
2023-04-08T02:07:57.666Z,10.70
2023-04-08T02:10:44.618Z,10.70
2023-04-08T02:13:31.619Z,10.70
2023-04-08T02:16:27.545Z,10.70
2023-04-08T02:19:24.433Z,10.60
2023-04-08T02:22:19.161Z,10.60
2023-04-08T02:25:08.100Z,10.50
2023-04-08T02:27:56.080Z,10.50
2023-04-08T02:30:43.501Z,10.40
2023-04-08T02:33:29.190Z,10.40
2023-04-08T02:36:16.497Z,10.40
2023-04-08T02:39:03.094Z,10.40
2023-04-08T02:41:48.531Z,10.30
2023-04-08T02:44:37.213Z,10.10
2023-04-08T02:47:22.913Z,10.10
2023-04-08T02:50:10.597Z,10.00
2023-04-08T02:52:56.370Z,10.00
2023-04-08T02:56:04.229Z,10.00
2023-04-08T02:58:48.466Z,10.00
2023-04-08T03:01:34.254Z,10.00
2023-04-08T03:04:19.946Z,10.00
2023-04-08T03:07:08.111Z,10.00
2023-04-08T03:09:57.577Z,9.90
2023-04-08T03:12:42.982Z,9.90
2023-04-08T03:15:28.611Z,10.00
2023-04-08T03:18:14.200Z,10.00
2023-04-08T03:21:00.098Z,9.90
2023-04-08T03:23:45.696Z,9.90
2023-04-08T03:26:31.116Z,9.90
2023-04-08T03:29:16.597Z,9.90
2023-04-08T03:32:02.394Z,9.90
2023-04-08T03:34:51.234Z,9.90
2023-04-08T03:37:36.809Z,10.00
2023-04-08T03:40:28.227Z,10.00
2023-04-08T03:43:14.700Z,10.00
2023-04-08T03:46:00.199Z,9.90
2023-04-08T03:48:45.478Z,9.80
2023-04-08T03:51:31.048Z,9.80
2023-04-08T03:54:19.370Z,9.80
2023-04-08T03:57:04.889Z,9.80
2023-04-08T03:59:50.503Z,9.80
2023-04-08T04:02:36.296Z,9.80
2023-04-08T04:05:22.477Z,9.80
2023-04-08T04:08:09.341Z,9.80
2023-04-08T04:10:54.934Z,9.90
2023-04-08T04:13:40.641Z,9.90
2023-04-08T04:16:26.325Z,9.80
2023-04-08T04:19:11.949Z,9.80
2023-04-08T04:21:57.377Z,9.80
2023-04-08T04:24:47.305Z,9.70
2023-04-08T04:27:32.963Z,9.70
2023-04-08T04:30:19.617Z,9.60
2023-04-08T04:33:05.745Z,9.60
2023-04-08T04:35:51.117Z,9.50
2023-04-08T04:38:37.039Z,9.50
2023-04-08T04:41:22.470Z,9.60
2023-04-08T04:44:08.206Z,9.60
2023-04-08T04:46:53.628Z,9.60
2023-04-08T04:49:40.284Z,9.60
2023-04-08T04:52:28.729Z,9.60
2023-04-08T04:55:16.069Z,9.50
2023-04-08T04:58:01.800Z,9.50
2023-04-08T05:00:47.095Z,9.50
2023-04-08T05:03:32.624Z,9.50
2023-04-08T05:06:18.133Z,9.50
2023-04-08T05:09:03.694Z,9.50
2023-04-08T05:11:49.387Z,9.50
2023-04-08T05:14:34.733Z,9.50
2023-04-08T05:17:23.169Z,9.50
2023-04-08T05:20:09.513Z,9.50
2023-04-08T05:22:56.691Z,9.50
2023-04-08T05:25:42.290Z,9.50
2023-04-08T05:28:30.595Z,9.50
2023-04-08T05:31:16.738Z,9.50
2023-04-08T05:34:01.949Z,9.50
2023-04-08T05:36:47.546Z,9.60
2023-04-08T05:39:33.534Z,9.50
2023-04-08T05:42:18.718Z,9.50
2023-04-08T05:45:04.927Z,9.60
2023-04-08T05:47:50.891Z,9.60
2023-04-08T05:50:41.656Z,9.60
2023-04-08T05:53:27.229Z,9.60
2023-04-08T05:56:12.874Z,9.70
2023-04-08T05:58:59.665Z,9.70
2023-04-08T06:01:45.636Z,9.70
2023-04-08T06:04:32.779Z,9.80
2023-04-08T06:07:20.867Z,9.80
2023-04-08T06:10:07.354Z,9.80
2023-04-08T06:12:52.969Z,9.80
2023-04-08T06:15:38.274Z,9.80
2023-04-08T06:18:25.620Z,9.90
2023-04-08T06:21:11.689Z,9.80
2023-04-08T06:23:57.047Z,9.80
2023-04-08T06:26:42.544Z,9.90
2023-04-08T06:29:30.049Z,10.00
2023-04-08T06:32:16.249Z,10.00
2023-04-08T06:35:01.972Z,10.10
2023-04-08T06:37:47.245Z,10.10
2023-04-08T06:40:32.882Z,10.20
2023-04-08T06:43:18.315Z,10.20
2023-04-08T06:46:04.150Z,10.20
2023-04-08T06:48:49.814Z,10.20
2023-04-08T06:51:35.523Z,10.30
2023-04-08T06:54:22.620Z,10.40
2023-04-08T06:57:11.687Z,10.50
2023-04-08T06:59:57.311Z,10.60
2023-04-08T07:02:42.755Z,10.60
2023-04-08T07:05:28.124Z,10.70
2023-04-08T07:08:14.876Z,10.80
2023-04-08T07:11:00.874Z,10.80
2023-04-08T07:13:46.267Z,10.90
2023-04-08T07:16:31.898Z,11.00
2023-04-08T07:19:17.422Z,11.00
2023-04-08T07:22:02.732Z,11.10
2023-04-08T07:24:52.026Z,11.10
2023-04-08T07:27:37.469Z,11.10
2023-04-08T07:30:23.398Z,11.20
2023-04-08T07:33:11.573Z,11.30
2023-04-08T07:35:56.998Z,11.30
2023-04-08T07:38:42.209Z,11.40
2023-04-08T07:41:27.394Z,11.40
2023-04-08T07:44:17.015Z,11.40
2023-04-08T07:47:02.628Z,11.40
2023-04-08T07:49:48.598Z,11.40
2023-04-08T07:52:34.720Z,11.40
2023-04-08T07:55:20.450Z,11.50
2023-04-08T07:58:06.373Z,11.70
2023-04-08T08:00:51.873Z,11.80
2023-04-08T08:03:38.884Z,11.90
2023-04-08T08:06:24.438Z,11.90
2023-04-08T08:09:11.618Z,12.00
2023-04-08T08:11:57.202Z,12.00
2023-04-08T08:14:42.664Z,12.20
2023-04-08T08:17:30.323Z,12.30
2023-04-08T08:20:16.894Z,12.20
2023-04-08T08:23:02.421Z,12.20
2023-04-08T08:25:47.744Z,12.40
2023-04-08T08:28:33.729Z,12.50
2023-04-08T08:31:19.071Z,12.50
2023-04-08T08:34:04.628Z,12.40
2023-04-08T08:36:50.447Z,12.50
2023-04-08T08:39:36.160Z,12.60
2023-04-08T08:42:25.526Z,12.60
2023-04-08T08:45:11.333Z,12.70
2023-04-08T08:47:57.691Z,12.70
2023-04-08T08:50:43.470Z,12.80
2023-04-08T08:53:33.483Z,12.90
2023-04-08T08:56:22.149Z,13.00
2023-04-08T08:59:07.301Z,13.10
2023-04-08T09:01:53.034Z,13.30
2023-04-08T09:04:38.549Z,13.40
2023-04-08T09:07:26.764Z,13.60
2023-04-08T09:10:12.232Z,13.80
2023-04-08T09:12:58.385Z,13.70
2023-04-08T09:16:20.306Z,13.90
2023-04-08T09:19:10.511Z,14.10
2023-04-08T09:22:12.700Z,14.10
2023-04-08T09:24:58.579Z,13.90
2023-04-08T09:27:44.037Z,13.60
2023-04-08T09:30:54.212Z,13.20
2023-04-08T09:33:39.473Z,13.00
2023-04-08T09:36:28.638Z,12.80
2023-04-08T09:39:14.033Z,12.50
2023-04-08T09:42:04.206Z,12.40
2023-04-08T09:44:49.984Z,12.30
2023-04-08T09:48:05.763Z,12.10
2023-04-08T09:50:52.949Z,12.10
2023-04-08T09:53:41.711Z,12.10
2023-04-08T09:56:31.566Z,12.00
2023-04-08T09:59:18.754Z,12.10
2023-04-08T10:02:10.229Z,12.10
2023-04-08T10:04:59.214Z,12.10
2023-04-08T10:07:48.188Z,12.20
2023-04-08T10:10:40.774Z,12.30
2023-04-08T10:13:28.434Z,12.40
2023-04-08T10:16:20.041Z,12.40
2023-04-08T10:19:43.321Z,12.50
2023-04-08T10:22:28.825Z,12.60
2023-04-08T10:25:26.652Z,12.60
2023-04-08T10:28:18.632Z,12.60
2023-04-08T10:31:04.655Z,12.70
2023-04-08T10:33:49.892Z,12.80
2023-04-08T10:36:36.310Z,12.90
2023-04-08T10:39:22.100Z,12.90
2023-04-08T10:42:08.785Z,13.10
2023-04-08T10:44:54.125Z,13.20
2023-04-08T10:47:39.464Z,13.30
2023-04-08T10:50:24.939Z,13.40
2023-04-08T10:53:11.303Z,13.50
2023-04-08T10:56:07.813Z,13.60
2023-04-08T10:58:56.571Z,13.80
2023-04-08T11:01:44.980Z,14.00
2023-04-08T11:04:30.731Z,14.20
2023-04-08T11:07:16.139Z,14.50
2023-04-08T11:10:07.463Z,14.70
2023-04-08T11:12:55.376Z,15.00
2023-04-08T11:15:42.754Z,15.30
2023-04-08T11:18:28.616Z,15.50
2023-04-08T11:21:15.321Z,15.90
2023-04-08T11:24:12.151Z,16.30
2023-04-08T11:27:00.114Z,16.80
2023-04-08T11:29:45.607Z,17.20
2023-04-08T11:32:31.465Z,17.80
2023-04-08T11:35:17.600Z,18.30
2023-04-08T11:38:05.462Z,18.90
2023-04-08T11:40:55.252Z,19.70
2023-04-08T11:43:57.047Z,20.40
2023-04-08T11:46:55.292Z,21.20
2023-04-08T11:49:45.712Z,22.00
2023-04-08T11:52:41.507Z,22.40
2023-04-08T11:55:28.060Z,23.10
2023-04-08T11:58:13.618Z,23.80
2023-04-08T12:00:59.410Z,24.50
2023-04-08T12:04:14.187Z,25.20
2023-04-08T12:06:59.883Z,25.70
2023-04-08T12:09:45.002Z,26.10
2023-04-08T12:12:31.252Z,26.60
2023-04-08T12:15:16.784Z,27.00
2023-04-08T12:18:02.386Z,27.30
2023-04-08T12:20:47.524Z,27.90
2023-04-08T12:23:34.024Z,28.30
2023-04-08T12:26:20.152Z,28.70
2023-04-08T12:29:06.069Z,29.20
2023-04-08T12:31:51.656Z,29.60
2023-04-08T12:34:36.764Z,30.10
2023-04-08T12:37:22.358Z,30.60
2023-04-08T12:40:08.792Z,30.80
2023-04-08T12:42:54.037Z,31.10
2023-04-08T12:45:39.548Z,31.30
2023-04-08T12:48:25.600Z,31.50
2023-04-08T12:51:12.715Z,31.70
2023-04-08T12:53:59.624Z,32.20
2023-04-08T12:56:45.632Z,32.40
2023-04-08T12:59:35.338Z,32.60
2023-04-08T13:02:20.740Z,32.70
2023-04-08T13:05:06.225Z,33.00
2023-04-08T13:07:51.828Z,33.20
2023-04-08T13:10:37.717Z,33.50
2023-04-08T13:13:23.127Z,33.80
2023-04-08T13:16:09.613Z,34.10
2023-04-08T13:18:55.841Z,34.20
2023-04-08T13:21:41.085Z,34.40
2023-04-08T13:24:26.619Z,34.50
2023-04-08T13:27:12.355Z,34.60
2023-04-08T13:30:00.949Z,34.30
2023-04-08T13:32:49.170Z,34.40
2023-04-08T13:35:34.890Z,34.10
2023-04-08T13:38:20.553Z,34.10
2023-04-08T13:41:05.773Z,34.40
2023-04-08T13:43:51.321Z,34.30
2023-04-08T13:46:36.694Z,34.30
2023-04-08T13:49:22.685Z,34.20
2023-04-08T13:52:08.154Z,34.50
2023-04-08T13:54:53.757Z,35.00
2023-04-08T13:57:39.386Z,35.40
2023-04-08T14:00:25.677Z,35.60
2023-04-08T14:03:11.032Z,34.70
2023-04-08T14:06:01.933Z,33.60
2023-04-08T14:08:47.291Z,32.40
2023-04-08T14:11:32.846Z,31.30
2023-04-08T14:14:18.511Z,30.50
2023-04-08T14:17:04.328Z,29.80
2023-04-08T14:19:49.914Z,29.10
2023-04-08T14:22:37.847Z,28.10
2023-04-08T14:25:26.602Z,27.60
2023-04-08T14:28:12.303Z,27.10
2023-04-08T14:30:58.084Z,26.50
2023-04-08T14:33:43.568Z,25.90
2023-04-08T14:36:30.203Z,25.30
2023-04-08T14:39:15.479Z,24.80
2023-04-08T14:42:02.109Z,24.30
2023-04-08T14:44:47.786Z,24.00
2023-04-08T14:47:34.391Z,25.00
2023-04-08T14:50:23.010Z,27.00
2023-04-08T14:53:08.262Z,28.00
2023-04-08T14:55:54.033Z,28.70
2023-04-08T14:58:39.460Z,29.80
2023-04-08T15:01:25.698Z,30.80
2023-04-08T15:04:11.236Z,31.70
2023-04-08T15:06:57.061Z,32.20
2023-04-08T15:09:42.765Z,32.20
2023-04-08T15:12:29.182Z,31.10
2023-04-08T15:15:15.655Z,30.20
2023-04-08T15:18:03.838Z,29.80
2023-04-08T15:20:49.319Z,29.40
2023-04-08T15:23:34.680Z,28.80
2023-04-08T15:26:21.566Z,28.80
2023-04-08T15:29:07.061Z,29.10
2023-04-08T15:31:52.791Z,30.10
2023-04-08T15:34:41.433Z,30.90
2023-04-08T15:37:27.049Z,31.10
2023-04-08T15:40:13.046Z,31.70
2023-04-08T15:43:01.362Z,31.50
2023-04-08T15:45:48.304Z,31.00
2023-04-08T15:48:34.009Z,30.20
2023-04-08T15:51:20.487Z,29.30
2023-04-08T15:54:06.432Z,28.40
2023-04-08T15:56:51.891Z,28.00
2023-04-08T15:59:37.214Z,27.80
2023-04-08T16:02:23.115Z,28.90
2023-04-08T16:05:09.231Z,29.70
2023-04-08T16:07:54.559Z,28.80
2023-04-08T16:10:39.932Z,27.80
2023-04-08T16:13:25.428Z,27.00
2023-04-08T16:16:12.399Z,26.40
2023-04-08T16:18:58.407Z,26.80
2023-04-08T16:21:44.081Z,28.20
2023-04-08T16:24:29.745Z,29.10
2023-04-08T16:27:14.789Z,29.60
2023-04-08T16:30:00.437Z,29.90
2023-04-08T16:32:45.647Z,30.10
2023-04-08T16:35:31.645Z,30.30
2023-04-08T16:38:16.828Z,30.20
2023-04-08T16:41:04.665Z,30.20
2023-04-08T16:43:52.762Z,30.10
2023-04-08T16:46:38.492Z,30.00
2023-04-08T16:49:24.659Z,30.00
2023-04-08T16:52:13.053Z,30.00
2023-04-08T16:55:01.944Z,29.90
2023-04-08T16:57:47.635Z,29.60
2023-04-08T17:00:33.173Z,29.50
2023-04-08T17:03:19.003Z,29.10
2023-04-08T17:06:13.781Z,28.30
2023-04-08T17:08:59.293Z,27.60
2023-04-08T17:11:44.901Z,26.60
2023-04-08T17:14:30.079Z,26.30
2023-04-08T17:17:16.265Z,26.20
2023-04-08T17:20:01.964Z,25.90
2023-04-08T17:22:47.771Z,25.20
2023-04-08T17:25:35.390Z,24.50
2023-04-08T17:28:21.962Z,23.50
2023-04-08T17:31:07.526Z,22.80
2023-04-08T17:33:53.145Z,21.70
2023-04-08T17:36:41.830Z,20.80
2023-04-08T17:39:27.422Z,19.90
2023-04-08T17:42:13.249Z,19.20
2023-04-08T17:45:02.032Z,18.60
2023-04-08T17:47:47.446Z,18.00
2023-04-08T17:50:33.429Z,17.50
2023-04-08T17:53:19.179Z,17.20
2023-04-08T17:56:06.010Z,16.80
2023-04-08T17:58:51.500Z,16.50
2023-04-08T18:01:39.823Z,16.50
2023-04-08T18:04:25.588Z,16.30
2023-04-08T18:07:11.108Z,15.90
2023-04-08T18:09:56.421Z,15.50
2023-04-08T18:12:42.092Z,15.10
2023-04-08T18:15:27.343Z,14.70
2023-04-08T18:18:14.941Z,14.40
2023-04-08T18:21:00.962Z,14.10
2023-04-08T18:23:49.798Z,13.80
2023-04-08T18:26:35.724Z,13.60
2023-04-08T18:29:22.512Z,13.30
2023-04-08T18:32:08.163Z,13.10
2023-04-08T18:34:54.297Z,12.80
2023-04-08T18:37:39.633Z,12.70
2023-04-08T18:40:25.536Z,12.40
2023-04-08T18:43:12.003Z,12.20
2023-04-08T18:45:57.326Z,12.10
2023-04-08T18:48:42.637Z,12.00
2023-04-08T18:51:30.916Z,11.80
2023-04-08T18:54:17.751Z,11.70
2023-04-08T18:57:03.318Z,11.60
2023-04-08T18:59:48.891Z,11.50
2023-04-08T19:02:35.037Z,11.40
2023-04-08T19:05:20.668Z,11.40
2023-04-08T19:08:12.237Z,11.20
2023-04-08T19:10:58.071Z,11.20
2023-04-08T19:13:43.548Z,11.10
2023-04-08T19:16:28.801Z,11.10
2023-04-08T19:19:14.532Z,11.00
2023-04-08T19:22:02.673Z,11.00
2023-04-08T19:24:48.223Z,11.00
2023-04-08T19:27:33.709Z,10.90
2023-04-08T19:30:18.976Z,10.80
2023-04-08T19:33:05.726Z,10.80
2023-04-08T19:35:51.217Z,10.70
2023-04-08T19:38:37.064Z,10.70
2023-04-08T19:41:23.111Z,10.60
2023-04-08T19:44:08.614Z,10.60
2023-04-08T19:46:54.678Z,10.60
2023-04-08T19:49:40.460Z,10.50
2023-04-08T19:52:26.821Z,10.50
2023-04-08T19:55:12.287Z,10.50
2023-04-08T19:58:00.681Z,10.50
2023-04-08T20:00:46.539Z,10.40
2023-04-08T20:03:32.350Z,10.40
2023-04-08T20:06:18.987Z,10.40
2023-04-08T20:09:05.653Z,10.30
2023-04-08T20:11:51.446Z,10.30
2023-04-08T20:14:42.200Z,10.30
2023-04-08T20:17:27.996Z,10.30
2023-04-08T20:20:17.009Z,10.30
2023-04-08T20:23:02.759Z,10.20
2023-04-08T20:25:48.250Z,10.20
2023-04-08T20:28:33.997Z,10.20
2023-04-08T20:31:19.783Z,10.20
2023-04-08T20:34:06.525Z,10.20
2023-04-08T20:36:55.927Z,10.20
2023-04-08T20:39:41.871Z,10.10
2023-04-08T20:42:27.007Z,10.10
2023-04-08T20:45:12.629Z,10.10
2023-04-08T20:47:58.158Z,10.10
2023-04-08T20:50:43.676Z,10.10
2023-04-08T20:53:29.999Z,10.10
2023-04-08T20:56:16.332Z,10.10
2023-04-08T20:59:01.842Z,10.10
2023-04-08T21:01:52.288Z,10.00
2023-04-08T21:04:38.098Z,10.00
2023-04-08T21:07:26.157Z,10.00
2023-04-08T21:10:14.152Z,10.00
2023-04-08T21:13:01.198Z,10.00
2023-04-08T21:15:46.478Z,10.00
2023-04-08T21:18:32.753Z,9.90
2023-04-08T21:21:17.998Z,9.90
2023-04-08T21:24:04.033Z,9.90
2023-04-08T21:26:49.756Z,9.90
2023-04-08T21:29:35.439Z,9.90
2023-04-08T21:32:20.757Z,9.90
2023-04-08T21:35:06.466Z,9.80
2023-04-08T21:37:51.995Z,9.80
2023-04-08T21:40:42.366Z,9.80
2023-04-08T21:43:27.632Z,9.80
2023-04-08T21:46:13.379Z,9.70
2023-04-08T21:48:58.765Z,9.70
2023-04-08T21:51:44.219Z,9.70
2023-04-08T21:54:29.718Z,9.70
2023-04-08T21:57:18.346Z,9.60
2023-04-08T22:00:13.197Z,9.60
2023-04-08T22:03:02.059Z,9.50
2023-04-08T22:05:47.653Z,9.50
2023-04-08T22:08:37.498Z,9.50
2023-04-08T22:11:23.024Z,9.50
2023-04-08T22:14:08.423Z,9.40
2023-04-08T22:16:54.579Z,9.50
2023-04-08T22:19:39.650Z,9.40
2023-04-08T22:22:25.405Z,9.40
2023-04-08T22:25:11.155Z,9.30
2023-04-08T22:27:56.804Z,9.30
2023-04-08T22:30:42.405Z,9.30
2023-04-08T22:33:28.059Z,9.30
2023-04-08T22:36:13.354Z,9.20
2023-04-08T22:38:59.468Z,9.30
2023-04-08T22:41:45.748Z,9.20
2023-04-08T22:44:31.408Z,9.20
2023-04-08T22:47:16.717Z,9.20
2023-04-08T22:50:02.243Z,9.10
2023-04-08T22:52:47.913Z,9.10
2023-04-08T22:55:33.376Z,9.00
2023-04-08T22:58:18.900Z,9.00
2023-04-08T23:01:18.112Z,9.00
2023-04-08T23:04:09.826Z,9.00
2023-04-08T23:06:55.480Z,9.00
2023-04-08T23:09:40.998Z,9.00
2023-04-08T23:12:26.498Z,9.00
2023-04-08T23:15:12.004Z,8.90
2023-04-08T23:18:00.396Z,8.90
2023-04-08T23:20:52.920Z,8.90
2023-04-08T23:23:38.344Z,8.90
2023-04-08T23:26:25.237Z,8.90
2023-04-08T23:29:10.675Z,8.90
2023-04-08T23:31:58.494Z,8.90
2023-04-08T23:34:43.931Z,8.90
2023-04-08T23:37:29.890Z,8.90
2023-04-08T23:40:15.392Z,8.90
2023-04-08T23:43:01.268Z,8.80
2023-04-08T23:45:46.523Z,8.80
2023-04-08T23:48:32.081Z,8.90
2023-04-08T23:51:18.162Z,8.90
2023-04-08T23:54:03.613Z,8.90
2023-04-08T23:56:48.824Z,8.80
2023-04-08T23:59:34.626Z,8.90
